WetterOnline ( https://www.wetteronline.de )

Wetter aktuell Falsterbo

Aktuelles Wetter: Kopenhagen/Kastrup (5m)

6-stündlich | Neueste Meldungen
Ortszeit Temperatur Wetter
So, 17.10. 2:00 9.3° C bedeckt
Sa, 16.10. 20:00 9.7° C bedeckt
Sa, 16.10. 14:00 11.2° C leicht bewölkt
Sa, 16.10. 8:00 6.1° C wolkenlos
Sa, 16.10. 2:00 8.1° C wolkenlos
Fr, 15.10. 20:00 9.2° C wolkenlos
Fr, 15.10. 14:00 13.6° C wolkig
Fr, 15.10. 8:00 9.9° C leichter Regen
Ortszeit Temperatur Wetter
So, 17.10. 6:20 9° C leichter Regen
So, 17.10. 6:00 9.3° C leichte Schauer
So, 17.10. 5:50 9° C leichter Regen
So, 17.10. 5:20 9° C bedeckt
So, 17.10. 5:00 9.2° C bedeckt
So, 17.10. 4:50 9° C bedeckt
So, 17.10. 4:20 9° C bewölkt
So, 17.10. 4:00 9.2° C leichte Schauer
So, 17.10. 3:20 9° C leichter Regen
So, 17.10. 3:00 9.3° C leichter Regen
Ortszeit Relative Feuchte Sichtweite
So, 17.10. 2:00 85% 50 km
Sa, 16.10. 20:00 76% 60 km
Sa, 16.10. 14:00 65% 60 km
Sa, 16.10. 8:00 81% 35 km
Sa, 16.10. 2:00 79% 30 km
Fr, 15.10. 20:00 81% 30 km
Fr, 15.10. 14:00 65% 30 km
Fr, 15.10. 8:00 91% 21 km
Ortszeit Relative Feuchte Sichtweite
So, 17.10. 6:20 93% >10 km
So, 17.10. 6:00 89% 30 km
So, 17.10. 5:50 93% >10 km
So, 17.10. 5:20 87% >10 km
So, 17.10. 5:00 88% 45 km
So, 17.10. 4:50 87% >10 km
So, 17.10. 4:20 87% >10 km
So, 17.10. 4:00 88% 35 km
So, 17.10. 3:20 87% >10 km
So, 17.10. 3:00 86% 45 km
Ortszeit Niederschlagsmenge Niederschlagsart
So, 17.10. 2:00 0.1 l/m2 in 3 Std. Schauer
Sa, 16.10. 20:00 0.0 l/m2 in 3 Std. Schauer
Sa, 16.10. 14:00 0.0 l/m2 in 3 Std. -
Sa, 16.10. 8:00 keine Meldung -
Sa, 16.10. 2:00 0.0 l/m2 in 3 Std. -
Fr, 15.10. 20:00 0.3 l/m2 in 12 Std. -
Fr, 15.10. 14:00 0.0 l/m2 in 3 Std. -
Fr, 15.10. 8:00 4 l/m2 in 3 Std. Regenschauer
Ortszeit Niederschlagsmenge Niederschlagsart
So, 17.10. 6:20 keine Meldung -
So, 17.10. 6:00 0.0 l/m2 in 1 Std. Schauer
So, 17.10. 5:50 keine Meldung -
So, 17.10. 5:20 keine Meldung -
So, 17.10. 5:00 0.0 l/m2 in 1 Std. Schauer
So, 17.10. 4:50 keine Meldung -
So, 17.10. 4:20 keine Meldung -
So, 17.10. 4:00 0.0 l/m2 in 1 Std. Schauer
So, 17.10. 3:20 keine Meldung -
So, 17.10. 3:00 0.0 l/m2 in 1 Std. Regen
Ortszeit Stärke Spitze Richtung
km/h Bft. km/h Grad Sektor
So, 17.10. 2:00 15 3 - 250° W
Sa, 16.10. 20:00 17 3 - 250° W
Sa, 16.10. 14:00 31 5 - 260° W
Sa, 16.10. 8:00 19 3 - 250° W
Sa, 16.10. 2:00 19 3 - 280° W
Fr, 15.10. 20:00 20 4 56 270° W
Fr, 15.10. 14:00 24 4 - 290° W
Fr, 15.10. 8:00 19 3 - 280° W
Ortszeit Stärke Spitze Richtung
km/h Bft. km/h Grad Sektor
So, 17.10. 6:20 15 3 - 260° W
So, 17.10. 6:00 13 3 - 250° W
So, 17.10. 5:50 15 3 - 250° W
So, 17.10. 5:20 17 3 - 250° W
So, 17.10. 5:00 15 3 - 250° W
So, 17.10. 4:50 13 3 - 260° W
So, 17.10. 4:20 13 3 - 260° W
So, 17.10. 4:00 15 3 - 260° W
So, 17.10. 3:20 17 3 - 250° W
So, 17.10. 3:00 13 3 - 260° W
Ortszeit Untergrenze Bedeckung Gattung
total tief tief mittel hoch
So, 17.10. 2:00 2100 m 8/8 8/8 - - -
Sa, 16.10. 20:00 1110 m 8/8 8/8 - - -
Sa, 16.10. 14:00 900 m 2/8 2/8 - - -
Sa, 16.10. 8:00 - 0/8 0/8 - - -
Sa, 16.10. 2:00 - 0/8 0/8 - - -
Fr, 15.10. 20:00 - 0/8 0/8 - - -
Fr, 15.10. 14:00 840 m 5/8 5/8 - - -
Fr, 15.10. 8:00 1800 m 8/8 8/8 - - -
Ortszeit Bedeckungsgrad in Achtel und Wolkenuntergrenze
So, 17.10. 6:20 8(1230m)
So, 17.10. 6:00 8(1290m)
So, 17.10. 5:50 8(1290m)
So, 17.10. 5:20 8(1800m)
So, 17.10. 5:00 8(1080m)
So, 17.10. 4:50 5-7(960m) 5-7(1470m) 8(2100m)
So, 17.10. 4:20 5-7(1140m) 5-7(2100m)
So, 17.10. 4:00 1(1320m) 8(1500m)
So, 17.10. 3:20 8(1500m)
So, 17.10. 3:00 5(1500m) 6(1800m) 8(2100m)
Ortszeit Luftdruck NN (hPa) Tendenz (hPa in 3 Std.)
So, 17.10. 2:00 1016 - 0,3
Sa, 16.10. 20:00 1016 + 0,1
Sa, 16.10. 14:00 1017 + 0,2
Sa, 16.10. 8:00 1015 + 0,1
Sa, 16.10. 2:00 1014 + 0,8
Fr, 15.10. 20:00 1011 + 1,8
Fr, 15.10. 14:00 1006 + 1,3
Fr, 15.10. 8:00 1003 + 0,1
Ortszeit Luftdruck NN (hPa) Tendenz (hPa in 3 Std.)
So, 17.10. 6:20 1014 keine Meldung
So, 17.10. 6:00 1015 - 0,8
So, 17.10. 5:50 1014 keine Meldung
So, 17.10. 5:20 1015 keine Meldung
So, 17.10. 5:00 1015 - 0,7
So, 17.10. 4:50 1015 keine Meldung
So, 17.10. 4:20 1015 keine Meldung
So, 17.10. 4:00 1015 - 0,5
So, 17.10. 3:20 1015 keine Meldung
So, 17.10. 3:00 1016 - 0,4
Ortszeit Schneehöhe (cm)
So, 17.10. 2:00 -
Sa, 16.10. 20:00 -
Sa, 16.10. 14:00 -
Sa, 16.10. 8:00 -
Sa, 16.10. 2:00 -
Fr, 15.10. 20:00 -
Fr, 15.10. 14:00 -
Fr, 15.10. 8:00 -
Ortszeit Schneehöhe (cm)
So, 17.10. 6:20 -
So, 17.10. 6:00 -
So, 17.10. 5:50 -
So, 17.10. 5:20 -
So, 17.10. 5:00 -
So, 17.10. 4:50 -
So, 17.10. 4:20 -
So, 17.10. 4:00 -
So, 17.10. 3:20 -
So, 17.10. 3:00 -
Link zu dieser Seite / Seite empfehlen

Das Wetter in ...